Time;durP1;ratioP1;P1;durP2;ratioP2;P2;SDS_P1;SDS_P2;PMS_P1;PMS_P2;Temp;Humidity;BMP_temperature;BMP_pressure;BME280_temperature;BME280_humidity;BME280_pressure;Samples;Min_cycle;Max_cycle;Signal;HPM_P1;HPM_P2
2022/12/17 13:06:04;;;;;;;23.55;10.18;;;18.80;51.50;;;;;;6246515;28;20025;-68
2022/12/17 13:09:15;;;;;;;27.73;10.18;;;18.80;51.60;;;;;;6247000;28;20136;-68
2022/12/17 13:12:31;;;;;;;31.00;10.48;;;18.80;51.60;;;;;;6246686;28;20056;-69
2022/12/17 13:15:40;;;;;;;35.25;11.20;;;18.80;51.50;;;;;;6243365;28;20505;-68
2022/12/17 13:18:40;;;;;;;29.77;9.48;;;18.80;51.40;;;;;;6247011;28;20044;-68
2022/12/17 13:21:41;;;;;;;142.80;14.82;;;18.80;51.50;;;;;;6246487;28;20700;-68
2022/12/17 13:24:44;;;;;;;53.03;10.60;;;18.80;51.50;;;;;;6246156;28;20021;-68
2022/12/17 13:27:45;;;;;;;78.45;12.73;;;18.80;51.50;;;;;;6246422;28;20034;-68
2022/12/17 13:30:46;;;;;;;86.95;12.52;;;18.80;51.60;;;;;;6239294;28;20367;-69
2022/12/17 13:33:57;;;;;;;76.10;13.52;;;18.80;51.50;;;;;;6244893;28;20048;-69
2022/12/17 13:37:31;;;;;;;58.03;12.25;;;18.80;51.60;;;;;;6268503;28;20143;-69
2022/12/17 13:41:02;;;;;;;56.20;12.80;;;18.80;51.50;;;;;;6259141;28;20445;-71
2022/12/17 13:44:23;;;;;;;54.05;11.65;;;18.80;51.50;;;;;;6227456;28;20040;-69
2022/12/17 13:47:32;;;;;;;39.95;10.43;;;18.80;51.60;;;;;;6220395;28;20037;-69
2022/12/17 13:50:33;;;;;;;37.65;9.63;;;18.80;51.40;;;;;;6229836;28;20029;-69
2022/12/17 13:53:34;;;;;;;52.13;12.07;;;18.80;51.60;;;;;;6249002;28;20022;-69
2022/12/17 13:56:36;;;;;;;36.03;9.93;;;18.80;51.50;;;;;;6237156;28;20081;-69
2022/12/17 13:59:37;;;;;;;34.10;9.77;;;18.80;51.50;;;;;;6245756;28;20038;-69
2022/12/17 14:02:38;;;;;;;41.50;9.57;;;18.80;51.50;;;;;;6246773;28;20034;-69
2022/12/17 14:05:43;;;;;;;29.75;9.68;;;18.80;51.50;;;;;;6245660;28;20406;-71
2022/12/17 14:08:46;;;;;;;31.52;9.85;;;18.80;51.50;;;;;;6246414;28;20438;-71
2022/12/17 14:15:28;;;;;;;26.40;8.80;;;18.80;51.50;;;;;;6248606;28;20658;-69
2022/12/17 14:18:29;;;;;;;26.15;9.30;;;18.80;51.50;;;;;;6245397;28;20655;-69
2022/12/17 14:21:30;;;;;;;29.17;8.88;;;18.80;51.60;;;;;;6247137;28;20479;-72
2022/12/17 14:24:32;;;;;;;25.63;8.05;;;18.80;51.50;;;;;;6243466;28;20039;-70
2022/12/17 14:27:34;;;;;;;26.10;8.70;;;18.80;51.50;;;;;;6244468;28;20051;-71
2022/12/17 14:30:38;;;;;;;32.03;8.95;;;18.80;51.50;;;;;;6242574;28;20056;-71
2022/12/17 14:33:40;;;;;;;24.20;8.23;;;18.80;51.50;;;;;;6244523;28;20507;-70
2022/12/17 14:36:42;;;;;;;21.83;7.88;;;18.80;51.60;;;;;;6253423;28;20021;-71
2022/12/17 14:39:45;;;;;;;24.27;7.47;;;18.80;51.40;;;;;;6268910;28;20025;-71
2022/12/17 14:42:46;;;;;;;24.20;7.93;;;18.80;51.40;;;;;;6248890;28;20057;-72
2022/12/17 14:49:20;;;;;;;18.60;7.43;;;18.80;51.50;;;;;;6244269;28;20033;-71
2022/12/17 14:52:37;;;;;;;22.00;7.45;;;18.80;51.60;;;;;;6258600;28;20024;-71
2022/12/17 14:55:57;;;;;;;17.48;7.18;;;18.80;51.40;;;;;;6267389;28;20506;-71
2022/12/17 14:58:58;;;;;;;19.90;6.90;;;18.80;51.50;;;;;;6243195;28;20034;-71
2022/12/17 15:02:02;;;;;;;18.27;7.65;;;18.80;51.50;;;;;;6249107;28;20136;-71
2022/12/17 15:05:04;;;;;;;18.88;7.47;;;18.80;51.50;;;;;;6243402;28;20025;-71
2022/12/17 15:08:05;;;;;;;16.33;6.65;;;18.80;51.40;;;;;;6241886;28;20039;-71
2022/12/17 15:11:05;;;;;;;17.70;7.80;;;18.80;51.40;;;;;;6244544;28;20018;-71
2022/12/17 15:14:06;;;;;;;20.77;7.22;;;18.80;51.50;;;;;;6246734;28;20390;-71
2022/12/17 15:17:08;;;;;;;16.85;7.38;;;18.80;51.50;;;;;;6263898;28;20024;-71
2022/12/17 15:20:19;;;;;;;14.18;6.50;;;18.80;51.40;;;;;;6240595;28;20333;-71
2022/12/17 15:23:22;;;;;;;15.10;7.43;;;18.80;52.20;;;;;;6247660;28;20578;-70
2022/12/17 15:26:23;;;;;;;17.73;7.47;;;18.80;52.20;;;;;;6244417;28;20033;-71
2022/12/17 15:29:23;;;;;;;14.20;5.63;;;18.80;51.60;;;;;;6246328;28;20025;-71
2022/12/17 15:32:26;;;;;;;15.77;6.25;;;18.80;51.60;;;;;;6252349;28;20023;-71
2022/12/17 15:35:26;;;;;;;17.60;7.10;;;18.80;51.60;;;;;;6266111;28;20043;-70
2022/12/17 15:38:27;;;;;;;17.08;5.88;;;18.80;51.50;;;;;;6267412;28;20489;-71
2022/12/17 15:44:46;;;;;;;17.08;6.30;;;18.80;51.60;;;;;;6242399;28;20029;-71
2022/12/17 15:47:47;;;;;;;17.27;6.63;;;18.80;51.60;;;;;;6242788;28;20123;-71
2022/12/17 15:50:48;;;;;;;18.10;6.30;;;18.80;51.50;;;;;;6242680;28;20079;-70
2022/12/17 15:53:50;;;;;;;12.23;6.10;;;18.80;51.50;;;;;;6242438;28;20467;-70
2022/12/17 15:56:52;;;;;;;13.93;6.53;;;18.80;51.60;;;;;;6243725;28;20069;-71
2022/12/17 15:59:53;;;;;;;13.13;5.30;;;18.80;51.70;;;;;;6267724;28;20029;-70
2022/12/17 16:02:53;;;;;;;13.15;5.50;;;18.80;51.60;;;;;;6256083;28;20022;-71
2022/12/17 16:05:54;;;;;;;11.88;6.13;;;18.80;51.60;;;;;;6242316;28;20055;-71
2022/12/17 16:08:55;;;;;;;10.13;5.38;;;18.80;51.50;;;;;;6242268;28;20026;-72
2022/12/17 16:11:56;;;;;;;12.68;5.93;;;18.80;51.60;;;;;;6241956;28;20102;-70
2022/12/17 16:14:57;;;;;;;10.88;5.50;;;18.80;51.60;;;;;;6242355;28;20109;-71
2022/12/17 16:17:57;;;;;;;12.48;5.65;;;18.80;51.60;;;;;;6242051;28;20708;-70
2022/12/17 16:21:06;;;;;;;10.15;5.68;;;18.80;51.60;;;;;;6241892;28;20036;-70
2022/12/17 16:24:07;;;;;;;8.65;4.82;;;18.80;51.50;;;;;;6241906;28;20061;-70
2022/12/17 16:27:07;;;;;;;12.70;5.70;;;18.80;51.60;;;;;;6241858;28;20052;-70
2022/12/17 16:30:10;;;;;;;12.50;6.07;;;18.80;51.60;;;;;;6242175;28;20032;-71
2022/12/17 16:33:10;;;;;;;9.98;5.38;;;18.80;51.50;;;;;;6241916;28;20026;-70
2022/12/17 16:36:12;;;;;;;12.60;6.03;;;18.80;51.50;;;;;;6241887;28;20029;-70
2022/12/17 16:39:15;;;;;;;8.95;5.25;;;18.80;51.50;;;;;;6243648;28;20049;-70
2022/12/17 16:42:16;;;;;;;10.68;5.30;;;18.80;52.20;;;;;;6241635;28;20025;-71
2022/12/17 16:45:18;;;;;;;9.18;5.20;;;18.80;51.50;;;;;;6241623;28;20489;-69
2022/12/17 16:48:20;;;;;;;10.93;6.03;;;18.80;51.50;;;;;;6241167;28;20033;-69
2022/12/17 16:51:23;;;;;;;13.55;5.47;;;18.80;51.40;;;;;;6239963;28;20230;-69
2022/12/17 16:54:28;;;;;;;12.40;5.63;;;18.80;51.50;;;;;;6241055;28;20079;-69
2022/12/17 16:57:28;;;;;;;13.35;5.25;;;18.80;51.50;;;;;;6241322;28;20041;-68
2022/12/17 17:00:29;;;;;;;9.35;4.72;;;18.80;51.50;;;;;;6244757;28;20021;-69
2022/12/17 17:03:30;;;;;;;8.85;5.07;;;18.80;51.50;;;;;;6247050;28;20091;-69
2022/12/17 17:06:30;;;;;;;11.48;4.90;;;18.80;51.50;;;;;;6245494;28;20029;-70
2022/12/17 17:09:31;;;;;;;11.52;5.57;;;18.80;51.50;;;;;;6245709;28;20410;-69
2022/12/17 17:12:33;;;;;;;8.27;4.90;;;18.80;51.50;;;;;;6245484;28;20026;-68
2022/12/17 17:15:33;;;;;;;9.68;5.63;;;18.80;52.20;;;;;;6244272;28;20076;-69
2022/12/17 17:18:35;;;;;;;10.15;3.92;;;18.80;51.50;;;;;;6245125;28;20057;-68
2022/12/17 17:21:39;;;;;;;9.30;4.75;;;18.80;51.50;;;;;;6245253;28;20033;-68
2022/12/17 17:24:39;;;;;;;8.82;4.35;;;18.80;51.60;;;;;;6245375;28;20033;-69
2022/12/17 17:27:40;;;;;;;10.23;5.18;;;18.80;51.60;;;;;;6243803;28;20544;-68
2022/12/17 17:30:41;;;;;;;7.95;4.28;;;18.80;51.60;;;;;;6246682;28;20048;-69
2022/12/17 17:33:48;;;;;;;9.50;4.85;;;18.80;51.50;;;;;;6245398;28;20072;-68
2022/12/17 17:36:48;;;;;;;8.70;4.80;;;18.80;51.50;;;;;;6244710;28;20028;-68
2022/12/17 17:39:49;;;;;;;14.07;4.82;;;18.80;51.50;;;;;;6244796;28;20025;-68
2022/12/17 17:42:49;;;;;;;7.18;4.57;;;18.80;51.50;;;;;;6243707;28;20639;-68
2022/12/17 17:45:51;;;;;;;13.40;4.50;;;18.80;51.60;;;;;;6244214;28;20071;-69
2022/12/17 17:48:55;;;;;;;11.50;5.30;;;18.80;51.50;;;;;;6245166;28;20021;-69
2022/12/17 17:51:55;;;;;;;13.32;4.75;;;18.80;51.60;;;;;;6246068;28;20025;-68
2022/12/17 17:54:56;;;;;;;10.43;4.50;;;18.80;51.50;;;;;;6243960;28;20016;-68
2022/12/17 17:57:56;;;;;;;9.95;4.80;;;18.80;51.50;;;;;;6230832;28;20034;-68
2022/12/17 18:00:57;;;;;;;10.93;4.53;;;18.80;51.50;;;;;;6243087;28;20602;-69
2022/12/17 18:04:02;;;;;;;12.35;4.80;;;18.80;51.50;;;;;;6236225;28;20025;-68
2022/12/17 18:07:03;;;;;;;;;;;18.80;51.50;;;;;;6243243;28;20022;-68
2022/12/17 18:10:04;;;;;;;8.50;4.10;;;18.80;51.50;;;;;;6244637;28;19924;-69
2022/12/17 18:16:27;;;;;;;9.75;4.20;;;18.80;51.60;;;;;;6243495;28;20025;-68
2022/12/17 18:19:27;;;;;;;9.82;4.53;;;18.80;51.50;;;;;;6242996;28;20584;-68
2022/12/17 18:22:28;;;;;;;13.20;4.90;;;18.80;51.50;;;;;;6243626;28;20033;-68
2022/12/17 18:25:29;;;;;;;14.10;4.30;;;18.80;51.50;;;;;;6243043;28;20030;-69
2022/12/17 18:28:29;;;;;;;10.38;4.50;;;18.80;51.50;;;;;;6244155;28;20025;-69
2022/12/17 18:31:30;;;;;;;8.48;4.57;;;18.80;51.50;;;;;;6243529;28;20034;-69
2022/12/17 18:34:34;;;;;;;9.73;4.72;;;18.80;51.50;;;;;;6243499;28;20491;-68
2022/12/17 18:37:35;;;;;;;8.18;4.10;;;18.80;51.50;;;;;;6243855;28;20018;-69
2022/12/17 18:40:36;;;;;;;12.13;4.75;;;18.80;51.50;;;;;;6247387;28;20029;-68
2022/12/17 18:43:38;;;;;;;9.07;4.72;;;18.80;51.50;;;;;;6268288;28;20040;-69
2022/12/17 18:46:39;;;;;;;11.48;4.57;;;18.80;51.60;;;;;;6266419;28;20403;-69
2022/12/17 18:49:40;;;;;;;12.45;4.78;;;18.80;51.40;;;;;;6268281;28;20545;-68
2022/12/17 18:52:41;;;;;;;10.10;4.13;;;18.80;51.50;;;;;;6266806;28;20107;-69
2022/12/17 18:55:42;;;;;;;6.63;3.88;;;18.80;51.50;;;;;;6267420;28;20052;-69
2022/12/17 18:58:43;;;;;;;10.50;4.25;;;18.80;51.50;;;;;;6247743;28;20356;-69
2022/12/17 19:01:46;;;;;;;10.52;3.97;;;18.80;51.50;;;;;;6242628;28;20032;-68
2022/12/17 19:04:46;;;;;;;14.32;4.50;;;18.80;51.50;;;;;;6242656;28;20116;-69
2022/12/17 19:07:47;;;;;;;10.80;4.45;;;18.80;51.50;;;;;;6253910;28;20029;-69
2022/12/17 19:10:48;;;;;;;8.88;4.50;;;18.80;51.50;;;;;;6260273;28;20494;-69
2022/12/17 19:13:49;;;;;;;9.25;4.43;;;18.80;51.50;;;;;;6267886;28;20075;-69
2022/12/17 19:16:51;;;;;;;9.95;4.28;;;18.80;51.60;;;;;;6258013;28;20474;-69
2022/12/17 19:19:51;;;;;;;12.32;5.00;;;18.80;51.60;;;;;;6243482;28;20029;-68
2022/12/17 19:22:52;;;;;;;10.70;4.90;;;18.80;51.50;;;;;;6242578;28;20390;-69
2022/12/17 19:25:53;;;;;;;11.38;4.45;;;18.80;51.50;;;;;;6242381;28;20155;-69
2022/12/17 19:28:55;;;;;;;8.48;4.38;;;18.80;51.50;;;;;;6245859;28;20547;-69
2022/12/17 19:31:56;;;;;;;9.95;4.18;;;18.80;51.50;;;;;;6250658;28;20021;-68
2022/12/17 19:34:57;;;;;;;7.75;4.13;;;18.80;51.50;;;;;;6251991;28;20045;-69
2022/12/17 19:37:58;;;;;;;9.73;3.92;;;18.80;51.50;;;;;;6241134;28;20547;-69
2022/12/17 19:41:04;;;;;;;14.88;4.20;;;18.80;51.50;;;;;;6242506;28;20026;-69
2022/12/17 19:44:06;;;;;;;11.40;3.97;;;18.80;51.50;;;;;;6267097;28;20029;-69
2022/12/17 19:47:07;;;;;;;13.52;4.50;;;18.80;52.20;;;;;;6266556;28;20478;-69
2022/12/17 19:50:08;;;;;;;8.45;4.15;;;18.80;51.40;;;;;;6240900;28;20029;-68
2022/12/17 19:53:09;;;;;;;13.48;4.10;;;18.80;51.60;;;;;;6245357;28;20095;-69
2022/12/17 19:56:12;;;;;;;8.32;3.80;;;18.80;51.60;;;;;;6236965;28;20042;-69
2022/12/17 19:59:13;;;;;;;8.15;4.03;;;18.80;51.60;;;;;;6242965;28;20261;-73
2022/12/17 20:02:15;;;;;;;16.30;4.55;;;18.80;51.50;;;;;;6243435;28;20534;-68
2022/12/17 20:05:16;;;;;;;14.05;4.55;;;18.80;51.40;;;;;;6243086;28;20029;-68
2022/12/17 20:08:17;;;;;;;9.63;4.28;;;18.80;51.50;;;;;;6242899;28;20044;-69
2022/12/17 20:11:34;;;;;;;11.88;4.43;;;18.80;51.50;;;;;;6241626;28;20551;-68
2022/12/17 20:14:36;;;;;;;8.73;3.67;;;18.80;51.50;;;;;;6218342;28;20475;-68
2022/12/17 20:17:37;;;;;;;7.15;4.07;;;18.80;51.50;;;;;;6226034;28;20021;-68
2022/12/17 20:20:37;;;;;;;11.60;4.50;;;18.80;51.50;;;;;;6242250;28;20030;-68
2022/12/17 20:23:38;;;;;;;10.70;4.07;;;18.80;51.50;;;;;;6248694;28;20486;-68
2022/12/17 20:26:39;;;;;;;7.35;3.85;;;18.80;51.50;;;;;;6242971;28;20018;-68
2022/12/17 20:29:40;;;;;;;10.20;3.97;;;18.80;51.50;;;;;;6243004;28;20034;-69
2022/12/17 20:32:40;;;;;;;6.60;3.95;;;18.80;51.50;;;;;;6242729;28;20018;-68
2022/12/17 20:35:41;;;;;;;7.85;3.70;;;18.80;51.50;;;;;;6244118;28;20026;-69
2022/12/17 20:38:43;;;;;;;6.40;3.42;;;18.80;51.50;;;;;;6245745;28;20033;-68
2022/12/17 20:41:44;;;;;;;7.13;3.75;;;18.80;51.50;;;;;;6246043;28;20060;-68
2022/12/17 20:44:44;;;;;;;6.47;3.88;;;18.80;51.50;;;;;;6247093;28;20478;-69
2022/12/17 20:47:45;;;;;;;6.07;3.45;;;18.80;51.40;;;;;;6246852;28;20549;-68
2022/12/17 20:50:46;;;;;;;6.72;3.85;;;18.80;51.40;;;;;;6246858;28;20029;-68
2022/12/17 20:53:52;;;;;;;7.10;4.05;;;18.80;51.40;;;;;;6254576;28;20478;-68
2022/12/17 20:56:53;;;;;;;7.40;3.83;;;18.80;51.40;;;;;;6266628;28;20423;-69
2022/12/17 20:59:54;;;;;;;5.82;3.70;;;18.80;51.40;;;;;;6245013;28;20150;-69
2022/12/17 21:02:55;;;;;;;8.05;3.90;;;18.80;51.40;;;;;;6246676;28;20556;-68
2022/12/17 21:06:09;;;;;;;5.22;3.50;;;18.80;51.40;;;;;;6246812;28;20499;-68
2022/12/17 21:09:11;;;;;;;7.28;3.40;;;18.80;51.40;;;;;;6254827;28;20025;-69
2022/12/17 21:12:12;;;;;;;4.60;3.10;;;18.80;51.40;;;;;;6261826;28;20053;-67
2022/12/17 21:15:13;;;;;;;5.97;3.60;;;18.80;51.40;;;;;;6264959;28;20025;-68
2022/12/17 21:18:14;;;;;;;8.00;4.10;;;18.80;51.40;;;;;;6250054;28;20076;-68
2022/12/17 21:21:18;;;;;;;7.10;3.90;;;18.80;51.40;;;;;;6246719;28;20029;-68
2022/12/17 21:24:18;;;;;;;6.45;3.55;;;18.80;51.40;;;;;;6247682;28;20021;-70
2022/12/17 21:27:21;;;;;;;6.45;3.55;;;18.80;51.40;;;;;;6246061;28;20045;-68
2022/12/17 21:30:21;;;;;;;5.68;3.53;;;18.80;51.40;;;;;;6246839;28;20095;-67
2022/12/17 21:33:22;;;;;;;5.95;3.80;;;18.80;51.40;;;;;;6245374;28;20471;-70
2022/12/17 21:36:24;;;;;;;5.43;3.38;;;18.80;51.40;;;;;;6246109;28;20032;-70
2022/12/17 21:39:24;;;;;;;5.43;3.50;;;18.80;51.40;;;;;;6246210;28;20475;-70
2022/12/17 21:45:44;;;;;;;6.43;3.85;;;18.70;51.40;;;;;;6245441;28;20434;-70
2022/12/17 21:48:45;;;;;;;5.38;3.20;;;18.80;51.40;;;;;;6244175;28;20075;-70
2022/12/17 21:51:45;;;;;;;6.20;3.60;;;18.80;51.40;;;;;;6245697;28;20403;-70
2022/12/17 21:54:46;;;;;;;6.00;3.40;;;18.70;51.40;;;;;;6245849;28;20022;-70
2022/12/17 21:57:47;;;;;;;6.13;3.80;;;18.70;51.40;;;;;;6245769;28;20042;-70
2022/12/17 22:00:47;;;;;;;6.38;3.53;;;18.70;51.40;;;;;;6244248;28;20053;-70
2022/12/17 22:03:49;;;;;;;6.18;4.15;;;18.70;51.40;;;;;;6245596;28;20104;-70
2022/12/17 22:06:50;;;;;;;6.40;3.50;;;18.70;51.40;;;;;;6245623;28;20025;-70
2022/12/17 22:09:50;;;;;;;5.53;3.55;;;18.70;51.30;;;;;;6245198;28;20029;-70
2022/12/17 22:16:10;;;;;;;4.38;3.08;;;18.70;51.30;;;;;;6245341;28;20029;-70
2022/12/17 22:19:19;;;;;;;4.70;3.42;;;18.80;51.40;;;;;;6244021;28;20530;-70
2022/12/17 22:22:20;;;;;;;7.22;3.30;;;18.70;51.40;;;;;;6244980;28;20021;-70
2022/12/17 22:25:20;;;;;;;5.55;3.38;;;18.70;51.30;;;;;;6245168;28;20129;-70
2022/12/17 22:28:21;;;;;;;4.53;3.25;;;18.70;51.40;;;;;;6243701;28;20610;-70
2022/12/17 22:34:44;;;;;;;4.57;3.40;;;18.70;51.40;;;;;;6245789;28;20030;-70
2022/12/17 22:37:45;;;;;;;4.78;3.55;;;18.70;51.40;;;;;;6245189;28;20021;-70
2022/12/17 22:40:46;;;;;;;4.85;3.55;;;18.70;51.40;;;;;;6244885;28;20643;-70
2022/12/17 22:43:46;;;;;;;5.32;3.40;;;18.70;51.40;;;;;;6244662;28;20021;-70
2022/12/17 22:46:47;;;;;;;5.82;3.35;;;18.70;51.30;;;;;;6244873;28;20083;-70
2022/12/17 22:49:48;;;;;;;4.95;3.50;;;18.70;51.30;;;;;;6243061;28;20478;-70
2022/12/17 22:52:49;;;;;;;4.47;3.60;;;18.70;51.30;;;;;;6244482;28;20500;-70
2022/12/17 22:55:50;;;;;;;4.40;2.80;;;18.70;51.30;;;;;;6244233;28;20044;-70
2022/12/17 22:58:51;;;;;;;4.57;2.95;;;18.70;51.30;;;;;;6244071;28;20108;-70
2022/12/17 23:01:52;;;;;;;4.82;3.22;;;18.70;51.30;;;;;;6243749;28;20288;-70
2022/12/17 23:04:53;;;;;;;3.97;2.83;;;18.70;51.20;;;;;;6244430;28;20037;-70
2022/12/17 23:07:54;;;;;;;4.95;3.40;;;18.80;51.40;;;;;;6244473;28;20060;-70
2022/12/17 23:10:55;;;;;;;8.63;3.13;;;18.70;51.20;;;;;;6242694;28;20414;-70
2022/12/17 23:13:55;;;;;;;4.82;3.20;;;18.70;51.20;;;;;;6242558;28;20021;-70
2022/12/17 23:16:56;;;;;;;3.78;3.15;;;18.70;51.30;;;;;;6242445;28;20518;-72
2022/12/17 23:19:58;;;;;;;4.95;3.20;;;18.80;51.40;;;;;;6243917;28;20021;-70
2022/12/17 23:22:59;;;;;;;4.43;2.80;;;18.70;51.20;;;;;;6244337;28;20112;-70
2022/12/17 23:26:12;;;;;;;4.03;2.92;;;18.70;51.20;;;;;;6243850;28;20041;-70
2022/12/17 23:29:14;;;;;;;3.58;2.90;;;18.80;51.30;;;;;;6243991;28;20032;-70
2022/12/17 23:32:15;;;;;;;5.53;3.53;;;18.80;51.40;;;;;;6243753;28;20026;-70
2022/12/17 23:35:16;;;;;;;4.90;3.40;;;18.80;51.30;;;;;;6243671;28;20779;-70
2022/12/17 23:38:16;;;;;;;3.88;2.83;;;18.70;51.20;;;;;;6242409;28;20039;-70
2022/12/17 23:41:22;;;;;;;3.95;2.88;;;18.80;51.30;;;;;;6243722;28;20033;-71
2022/12/17 23:44:22;;;;;;;4.13;3.03;;;18.70;51.20;;;;;;6243696;28;20037;-70
2022/12/17 23:47:24;;;;;;;4.70;3.13;;;18.70;51.20;;;;;;6243693;28;20027;-70
2022/12/17 23:50:24;;;;;;;7.15;3.20;;;18.80;51.30;;;;;;6242354;28;20025;-70
2022/12/17 23:53:28;;;;;;;4.35;3.17;;;18.70;51.20;;;;;;6241936;28;20056;-70
2022/12/17 23:56:29;;;;;;;4.03;2.70;;;18.70;51.20;;;;;;6243651;28;20046;-70
2022/12/17 23:59:29;;;;;;;4.03;2.92;;;18.80;51.30;;;;;;6243502;28;20048;-70
